Time;durP1;ratioP1;P1;durP2;ratioP2;P2;SDS_P1;SDS_P2;PMS_P1;PMS_P2;Temp;Humidity;BMP_temperature;BMP_pressure;BME280_temperature;BME280_humidity;BME280_pressure;Samples;Min_cycle;Max_cycle;Signal;HPM_P1;HPM_P2
2022/02/13 00:01:37;;;;;;;0.93;0.93;;;18.30;99.90;;;;;;5023808;28;20052;-63
2022/02/13 00:04:07;;;;;;;7.50;1.95;;;18.30;99.90;;;;;;5008764;28;20049;-60
2022/02/13 00:06:35;;;;;;;0.50;0.50;;;18.30;99.90;;;;;;5014448;28;20038;-61
2022/02/13 00:09:03;;;;;;;3.42;2.22;;;18.20;99.90;;;;;;5007866;28;20045;-60
2022/02/13 00:11:30;;;;;;;3.90;2.70;;;18.20;99.90;;;;;;5008708;28;20046;-62
2022/02/13 00:13:58;;;;;;;0.70;0.70;;;18.20;99.90;;;;;;5007883;28;20080;-62
2022/02/13 00:16:25;;;;;;;1.20;1.15;;;18.20;99.90;;;;;;5018247;28;20374;-63
2022/02/13 00:18:53;;;;;;;1.25;1.05;;;18.20;99.90;;;;;;5014153;28;20065;-62
2022/02/13 00:21:40;;;;;;;0.68;0.68;;;18.20;99.90;;;;;;5014850;28;20053;-62
2022/02/13 00:24:07;;;;;;;1.70;1.00;;;18.20;99.90;;;;;;5018525;28;20042;-62
2022/02/13 00:26:36;;;;;;;0.80;0.80;;;18.20;99.90;;;;;;5009430;28;20418;-62
2022/02/13 00:29:03;;;;;;;0.68;0.68;;;18.10;99.90;;;;;;5012214;28;20056;-62
2022/02/13 00:31:30;;;;;;;1.23;1.17;;;18.10;99.90;;;;;;5009089;28;20057;-63
2022/02/13 00:33:58;;;;;;;0.80;0.77;;;18.10;99.90;;;;;;5013707;28;20034;-63
2022/02/13 00:36:26;;;;;;;0.45;0.45;;;18.10;99.90;;;;;;5015260;28;20065;-60
2022/02/13 00:38:53;;;;;;;0.60;0.60;;;18.10;99.90;;;;;;5019789;28;20417;-61
2022/02/13 00:41:20;;;;;;;3.42;1.67;;;18.10;99.90;;;;;;5007170;28;20046;-63
2022/02/13 00:43:47;;;;;;;2.20;1.15;;;18.10;99.90;;;;;;5009880;28;20054;-63
2022/02/13 00:46:15;;;;;;;0.40;0.40;;;18.10;99.90;;;;;;5012177;28;20046;-62
2022/02/13 00:48:42;;;;;;;1.60;1.20;;;18.10;99.90;;;;;;5009836;28;20034;-63
2022/02/13 00:51:10;;;;;;;0.75;0.75;;;18.10;99.90;;;;;;5027664;28;20053;-63
2022/02/13 00:53:37;;;;;;;0.40;0.40;;;18.10;99.90;;;;;;5024961;28;20049;-62
2022/02/13 00:56:05;;;;;;;0.70;0.70;;;18.00;99.90;;;;;;5005931;28;20057;-60
2022/02/13 00:58:32;;;;;;;8.32;1.35;;;18.00;99.90;;;;;;5014085;28;20140;-62
2022/02/13 01:01:00;;;;;;;0.98;0.98;;;18.00;99.90;;;;;;5000201;28;20069;-62
2022/02/13 01:03:27;;;;;;;0.90;0.90;;;18.00;99.90;;;;;;5024705;28;20060;-63
2022/02/13 01:05:54;;;;;;;1.90;1.42;;;18.00;99.90;;;;;;5021094;28;20049;-62
2022/02/13 01:08:24;;;;;;;0.60;0.60;;;18.00;99.90;;;;;;5029830;28;20530;-62
2022/02/13 01:10:51;;;;;;;0.60;0.60;;;18.00;99.90;;;;;;5012510;28;20565;-62
2022/02/13 01:13:19;;;;;;;0.73;0.73;;;18.00;99.90;;;;;;5030517;28;20060;-61
2022/02/13 01:15:46;;;;;;;2.60;1.73;;;18.00;99.90;;;;;;5021940;28;20049;-63
2022/02/13 01:18:15;;;;;;;2.35;1.63;;;18.00;99.90;;;;;;5016047;28;20056;-62
2022/02/13 01:20:42;;;;;;;0.52;0.52;;;18.00;99.90;;;;;;5010282;28;20457;-61
2022/02/13 01:23:10;;;;;;;0.60;0.60;;;18.00;99.90;;;;;;5007034;28;20049;-62
2022/02/13 01:25:37;;;;;;;1.80;1.52;;;17.90;99.90;;;;;;5013623;28;20056;-62
2022/02/13 01:28:05;;;;;;;1.23;1.13;;;18.00;99.90;;;;;;5016595;28;20458;-63
2022/02/13 01:30:32;;;;;;;0.70;0.70;;;17.90;99.90;;;;;;5017353;28;20539;-61
2022/02/13 01:33:00;;;;;;;;;;;17.90;99.90;;;;;;5023154;28;20060;-61
2022/02/13 01:35:27;;;;;;;1.15;1.10;;;17.90;99.90;;;;;;5021515;28;19926;-61
2022/02/13 01:37:55;;;;;;;1.42;1.33;;;17.90;99.90;;;;;;5021667;28;20054;-60
2022/02/13 01:40:23;;;;;;;0.70;0.70;;;17.90;99.90;;;;;;5014110;28;20058;-62
2022/02/13 01:42:50;;;;;;;5.75;1.58;;;17.90;99.90;;;;;;5015684;28;20057;-63
2022/02/13 01:45:18;;;;;;;0.50;0.50;;;17.90;99.90;;;;;;5012228;28;20054;-63
2022/02/13 01:47:45;;;;;;;0.73;0.73;;;17.90;99.90;;;;;;5006509;28;20485;-63
2022/02/13 01:50:13;;;;;;;1.05;1.05;;;17.90;99.90;;;;;;5013843;28;20065;-62
2022/02/13 01:52:47;;;;;;;1.65;1.10;;;17.90;99.90;;;;;;5014019;28;20054;-63
2022/02/13 01:55:14;;;;;;;1.42;0.90;;;17.90;99.90;;;;;;5009912;28;20053;-61
2022/02/13 01:57:42;;;;;;;0.95;0.95;;;17.90;99.90;;;;;;5023553;28;20065;-61
2022/02/13 02:00:09;;;;;;;0.60;0.60;;;17.90;99.90;;;;;;5013584;28;20536;-62
2022/02/13 02:02:39;;;;;;;2.72;1.58;;;17.90;99.90;;;;;;5015091;28;20057;-61
2022/02/13 02:05:07;;;;;;;1.05;0.93;;;17.80;99.90;;;;;;5019271;28;20046;-61
2022/02/13 02:07:35;;;;;;;1.42;1.33;;;17.80;99.90;;;;;;5012454;28;20046;-64
2022/02/13 02:10:03;;;;;;;0.82;0.82;;;17.80;99.90;;;;;;5000110;28;20046;-60
2022/02/13 02:12:32;;;;;;;0.82;0.82;;;17.80;99.90;;;;;;5019263;28;20054;-60
2022/02/13 02:14:59;;;;;;;1.08;1.02;;;17.80;99.90;;;;;;5011821;28;20041;-61
2022/02/13 02:17:26;;;;;;;3.00;1.38;;;17.80;99.90;;;;;;5024676;28;20042;-61
2022/02/13 02:19:54;;;;;;;2.75;1.30;;;17.80;99.90;;;;;;5017133;28;20053;-62
2022/02/13 02:22:21;;;;;;;4.70;2.08;;;17.80;99.90;;;;;;5019073;28;20046;-63
2022/02/13 02:24:49;;;;;;;0.85;0.85;;;17.70;99.90;;;;;;5015764;28;20060;-60
2022/02/13 02:27:16;;;;;;;0.50;0.50;;;17.80;99.90;;;;;;5012338;28;20050;-62
2022/02/13 02:29:46;;;;;;;1.60;1.50;;;17.70;99.90;;;;;;5024498;28;20046;-59
2022/02/13 02:32:13;;;;;;;2.85;1.70;;;17.70;99.90;;;;;;5024381;28;20045;-59
2022/02/13 02:34:41;;;;;;;1.52;1.40;;;17.70;99.90;;;;;;5016231;28;20060;-60
2022/02/13 02:37:10;;;;;;;0.55;0.55;;;17.70;99.90;;;;;;5023728;28;20421;-60
2022/02/13 02:39:38;;;;;;;0.70;0.70;;;17.70;99.90;;;;;;5022095;28;20062;-62
2022/02/13 02:42:05;;;;;;;0.70;0.70;;;17.70;99.90;;;;;;5013582;28;20049;-63
2022/02/13 02:44:33;;;;;;;0.50;0.50;;;17.70;99.90;;;;;;5010706;28;20425;-61
2022/02/13 02:47:00;;;;;;;0.65;0.65;;;17.70;99.90;;;;;;5010920;28;20053;-62
2022/02/13 02:49:27;;;;;;;0.98;0.90;;;17.70;99.90;;;;;;5022096;28;20054;-62
2022/02/13 02:51:55;;;;;;;0.88;0.88;;;17.70;99.90;;;;;;5025880;28;20461;-61
2022/02/13 02:54:22;;;;;;;0.63;0.63;;;17.70;99.90;;;;;;5017578;28;20046;-62
2022/02/13 02:56:49;;;;;;;0.70;0.70;;;17.60;99.90;;;;;;5016169;28;20074;-63
2022/02/13 02:59:17;;;;;;;0.68;0.68;;;17.60;99.90;;;;;;5011935;28;20365;-63
2022/02/13 03:01:44;;;;;;;0.60;0.60;;;17.60;99.90;;;;;;5009390;28;20054;-64
2022/02/13 03:04:11;;;;;;;1.33;1.23;;;17.60;99.90;;;;;;5041660;28;20045;-64
2022/02/13 03:06:40;;;;;;;2.20;1.08;;;17.60;99.90;;;;;;5038033;28;20419;-63
2022/02/13 03:09:09;;;;;;;2.42;1.42;;;17.60;99.90;;;;;;5029287;28;20049;-63
2022/02/13 03:11:37;;;;;;;0.65;0.65;;;17.60;99.90;;;;;;5018010;28;20328;-62
2022/02/13 03:14:04;;;;;;;1.70;1.38;;;17.60;99.90;;;;;;5021691;28;20054;-62
2022/02/13 03:16:32;;;;;;;0.60;0.60;;;17.60;99.90;;;;;;5019668;28;20049;-57
2022/02/13 03:19:00;;;;;;;7.70;2.25;;;17.60;99.90;;;;;;5018896;28;20045;-60
2022/02/13 03:21:28;;;;;;;1.58;1.48;;;17.50;99.90;;;;;;5024790;28;20049;-64
2022/02/13 03:23:55;;;;;;;0.60;0.60;;;17.50;99.90;;;;;;5024073;28;20053;-61
2022/02/13 03:26:24;;;;;;;2.83;1.27;;;17.50;99.90;;;;;;5015413;28;20131;-62
2022/02/13 03:28:52;;;;;;;0.75;0.75;;;17.60;99.90;;;;;;5015527;28;20413;-60
2022/02/13 03:31:22;;;;;;;0.63;0.63;;;17.50;99.90;;;;;;5018340;28;20049;-63
2022/02/13 03:33:49;;;;;;;0.73;0.73;;;17.50;99.90;;;;;;5018107;28;20054;-61
2022/02/13 03:36:18;;;;;;;1.60;0.98;;;17.50;99.90;;;;;;5006219;28;20065;-61
2022/02/13 03:38:46;;;;;;;0.93;0.85;;;17.50;99.90;;;;;;5023512;28;20061;-59
2022/02/13 03:41:13;;;;;;;1.77;1.27;;;17.50;99.90;;;;;;5017543;28;20382;-61
2022/02/13 03:43:40;;;;;;;0.65;0.65;;;17.50;99.90;;;;;;5007488;28;20061;-63
2022/02/13 03:46:08;;;;;;;2.65;1.77;;;17.50;99.90;;;;;;5002077;28;20401;-61
2022/02/13 03:48:35;;;;;;;1.10;1.00;;;17.50;99.90;;;;;;5019275;28;20073;-61
2022/02/13 03:51:03;;;;;;;2.83;2.30;;;17.50;99.90;;;;;;5009312;28;20049;-61
2022/02/13 03:53:30;;;;;;;0.88;0.88;;;17.50;99.90;;;;;;5027699;28;20050;-61
2022/02/13 03:55:57;;;;;;;1.73;1.02;;;17.40;99.90;;;;;;5000301;28;20445;-62
2022/02/13 03:58:25;;;;;;;0.70;0.70;;;17.40;99.90;;;;;;5008014;28;20054;-61
2022/02/13 04:00:52;;;;;;;3.13;1.90;;;17.40;99.90;;;;;;4995023;28;20056;-61
2022/02/13 04:03:20;;;;;;;2.65;1.52;;;17.40;99.90;;;;;;4999556;28;20057;-61
2022/02/13 04:05:47;;;;;;;0.85;0.75;;;17.40;99.90;;;;;;5011440;28;20042;-62
2022/02/13 04:08:14;;;;;;;1.17;0.60;;;17.40;99.90;;;;;;5011806;28;20054;-64
2022/02/13 04:10:42;;;;;;;1.02;0.95;;;17.40;99.90;;;;;;5008387;28;20054;-60
2022/02/13 04:13:09;;;;;;;1.13;0.90;;;17.30;99.90;;;;;;5024201;28;20052;-62
2022/02/13 04:15:36;;;;;;;2.15;1.25;;;17.40;99.90;;;;;;5031790;28;20049;-61
2022/02/13 04:18:18;;;;;;;0.40;0.40;;;17.40;99.90;;;;;;5027899;28;20048;-62
2022/02/13 04:20:46;;;;;;;0.60;0.60;;;17.30;99.90;;;;;;5015557;28;20057;-60
2022/02/13 04:23:13;;;;;;;0.88;0.88;;;17.30;99.90;;;;;;5016512;28;20049;-60
2022/02/13 04:25:40;;;;;;;0.35;0.35;;;17.30;99.90;;;;;;5019386;28;20049;-62
2022/02/13 04:28:08;;;;;;;1.08;1.05;;;17.30;99.90;;;;;;5006315;28;20042;-62
2022/02/13 04:30:35;;;;;;;1.98;0.90;;;17.30;99.90;;;;;;5016320;28;20038;-60
2022/02/13 04:33:03;;;;;;;0.60;0.60;;;17.30;99.90;;;;;;5002923;28;20045;-60
2022/02/13 04:35:33;;;;;;;0.60;0.60;;;17.30;99.90;;;;;;5018387;28;20057;-62
2022/02/13 04:38:00;;;;;;;0.55;0.55;;;17.30;99.90;;;;;;5013015;28;20543;-61
2022/02/13 04:40:27;;;;;;;4.00;2.55;;;17.00;99.90;;;;;;5014951;28;20521;-61
2022/02/13 04:42:55;;;;;;;4.68;1.63;;;15.80;97.50;;;;;;5012527;28;20061;-63
2022/02/13 04:45:24;;;;;;;6.28;2.42;;;15.40;99.90;;;;;;5009363;28;20044;-62
2022/02/13 04:47:52;;;;;;;2.92;1.95;;;15.70;99.90;;;;;;5005212;28;20060;-60
2022/02/13 04:50:21;;;;;;;1.65;0.90;;;16.10;99.90;;;;;;5024365;28;20046;-63
2022/02/13 04:52:50;;;;;;;3.20;2.53;;;16.40;99.90;;;;;;5029414;28;20049;-61
2022/02/13 04:55:18;;;;;;;0.95;0.95;;;16.70;99.90;;;;;;5011001;28;20402;-62
2022/02/13 04:57:46;;;;;;;;;;;16.90;99.90;;;;;;5017170;28;21179;-61
2022/02/13 05:00:14;;;;;;;2.65;1.95;;;17.10;99.90;;;;;;5008821;28;19921;-58
2022/02/13 05:02:42;;;;;;;2.75;1.98;;;17.20;99.90;;;;;;5016258;28;20080;-61
2022/02/13 05:05:11;;;;;;;2.10;1.60;;;17.30;99.90;;;;;;5015474;28;20137;-61
2022/02/13 05:07:39;;;;;;;2.60;1.15;;;17.50;99.90;;;;;;5020574;28;20060;-63
2022/02/13 05:10:07;;;;;;;2.80;1.30;;;17.60;99.90;;;;;;5020232;28;20057;-62
2022/02/13 05:12:34;;;;;;;2.97;1.42;;;17.80;99.90;;;;;;5008216;28;20049;-63
2022/02/13 05:15:02;;;;;;;4.78;2.10;;;17.90;99.90;;;;;;5014682;28;20053;-64
2022/02/13 05:17:32;;;;;;;3.97;1.92;;;18.10;99.90;;;;;;5004230;28;20058;-63
2022/02/13 05:19:59;;;;;;;4.15;1.80;;;18.20;99.90;;;;;;5012833;28;20072;-61
2022/02/13 05:22:27;;;;;;;2.38;2.15;;;18.30;99.90;;;;;;5019104;28;20053;-62
2022/02/13 05:24:54;;;;;;;7.80;3.60;;;18.40;99.90;;;;;;5011913;28;20046;-62
2022/02/13 05:27:22;;;;;;;0.75;0.75;;;18.50;99.90;;;;;;5012465;28;20065;-62
2022/02/13 05:29:49;;;;;;;2.85;1.55;;;18.70;99.90;;;;;;5006682;28;20061;-62
2022/02/13 05:32:17;;;;;;;0.80;0.70;;;18.90;99.90;;;;;;5014082;28;20046;-62
2022/02/13 05:34:44;;;;;;;0.65;0.65;;;19.00;99.90;;;;;;5016497;28;20061;-60
2022/02/13 05:37:11;;;;;;;0.95;0.95;;;19.10;99.90;;;;;;5015658;28;20046;-64
2022/02/13 05:39:40;;;;;;;1.20;1.10;;;19.20;99.90;;;;;;5008671;28;20061;-62
2022/02/13 05:42:07;;;;;;;6.03;1.80;;;19.30;99.90;;;;;;5015292;28;20425;-61
2022/02/13 05:44:35;;;;;;;4.35;1.70;;;19.40;99.90;;;;;;5021400;28;20113;-60
2022/02/13 05:47:02;;;;;;;1.23;1.08;;;19.60;99.90;;;;;;5014522;28;20405;-60
2022/02/13 05:49:30;;;;;;;4.75;1.85;;;19.60;99.90;;;;;;5017718;28;20057;-61
2022/02/13 05:51:57;;;;;;;0.57;0.57;;;19.70;99.90;;;;;;5026240;28;20048;-58
2022/02/13 05:54:24;;;;;;;0.73;0.70;;;19.80;99.90;;;;;;5021968;28;20050;-62
2022/02/13 05:56:52;;;;;;;5.32;2.65;;;20.00;99.90;;;;;;5024021;28;20064;-61
2022/02/13 05:59:19;;;;;;;0.77;0.77;;;20.10;99.90;;;;;;5004569;28;20529;-63
2022/02/13 06:01:46;;;;;;;1.23;1.13;;;20.30;99.90;;;;;;5021591;28;20053;-64
2022/02/13 06:04:14;;;;;;;2.78;1.60;;;20.40;99.90;;;;;;5009340;28;20041;-61
2022/02/13 06:06:41;;;;;;;1.70;1.15;;;20.40;99.90;;;;;;5011192;28;20050;-59
2022/02/13 06:09:08;;;;;;;1.83;1.52;;;20.40;99.90;;;;;;5012643;28;20046;-59
2022/02/13 06:11:35;;;;;;;1.67;1.20;;;20.40;99.90;;;;;;5002548;28;20046;-60
2022/02/13 06:14:03;;;;;;;3.13;1.85;;;20.40;99.90;;;;;;5014926;28;20049;-59
2022/02/13 06:16:30;;;;;;;1.02;0.95;;;20.40;99.90;;;;;;5021062;28;20068;-61
2022/02/13 06:18:57;;;;;;;1.98;1.42;;;20.40;99.90;;;;;;5014477;28;20060;-61
2022/02/13 06:21:25;;;;;;;2.13;1.58;;;20.40;99.90;;;;;;5033190;28;20050;-63
2022/02/13 06:23:52;;;;;;;5.72;2.50;;;20.50;99.90;;;;;;5026673;28;20046;-64
2022/02/13 06:26:20;;;;;;;0.57;0.57;;;20.60;99.90;;;;;;5028127;28;20052;-66
2022/02/13 06:28:47;;;;;;;2.85;1.90;;;20.70;99.90;;;;;;5035150;28;20045;-64
2022/02/13 06:31:14;;;;;;;1.60;1.50;;;20.70;99.90;;;;;;5006616;28;20053;-67
2022/02/13 06:33:41;;;;;;;2.22;1.25;;;20.80;99.90;;;;;;5024289;28;20041;-69
2022/02/13 06:36:09;;;;;;;1.67;1.58;;;20.90;99.90;;;;;;5020936;28;20057;-68
2022/02/13 06:38:37;;;;;;;;;;;21.00;99.90;;;;;;5018680;28;20065;-65
2022/02/13 06:41:04;;;;;;;4.88;1.58;;;21.00;99.90;;;;;;5021109;28;20476;-65
2022/02/13 06:43:33;;;;;;;1.65;1.33;;;21.10;99.90;;;;;;5012527;28;20489;-66
2022/02/13 06:46:00;;;;;;;0.60;0.60;;;21.10;99.90;;;;;;5012335;28;20049;-64
2022/02/13 06:48:29;;;;;;;1.67;1.33;;;21.00;99.90;;;;;;5012751;28;20424;-68
2022/02/13 06:50:57;;;;;;;1.95;1.27;;;21.00;99.90;;;;;;5012336;28;20041;-67
2022/02/13 06:53:25;;;;;;;1.48;1.30;;;21.00;99.90;;;;;;5031553;28;20420;-68
2022/02/13 06:55:52;;;;;;;4.82;2.55;;;20.90;99.90;;;;;;5021573;28;20045;-65
2022/02/13 06:58:20;;;;;;;11.10;3.53;;;20.90;99.90;;;;;;5021101;28;20056;-67
2022/02/13 07:00:47;;;;;;;0.82;0.80;;;20.80;99.90;;;;;;5022324;28;20065;-65
2022/02/13 07:03:15;;;;;;;0.60;0.60;;;20.80;99.90;;;;;;5015172;28;20055;-67
2022/02/13 07:05:42;;;;;;;0.75;0.75;;;20.80;99.90;;;;;;5016070;28;20672;-66
2022/02/13 07:08:10;;;;;;;1.15;1.08;;;20.70;99.90;;;;;;5012930;28;20149;-67
2022/02/13 07:10:37;;;;;;;0.50;0.50;;;20.70;99.90;;;;;;4997308;28;20049;-66
2022/02/13 07:13:05;;;;;;;1.65;1.30;;;20.60;99.90;;;;;;5000457;28;20054;-67
2022/02/13 07:15:34;;;;;;;1.15;1.13;;;20.60;99.90;;;;;;5012155;28;20493;-66
2022/02/13 07:18:01;;;;;;;1.10;0.88;;;20.60;99.90;;;;;;5024846;28;20521;-65
2022/02/13 07:20:29;;;;;;;0.77;0.77;;;20.60;99.90;;;;;;5022981;28;20463;-64
2022/02/13 07:22:56;;;;;;;2.28;1.23;;;20.60;99.90;;;;;;5031270;28;20045;-65
2022/02/13 07:25:24;;;;;;;1.58;1.08;;;20.50;99.90;;;;;;5023440;28;20045;-63
2022/02/13 07:27:51;;;;;;;0.75;0.65;;;20.50;99.90;;;;;;5016686;28;20425;-60
2022/02/13 07:30:25;;;;;;;1.35;1.25;;;20.40;99.90;;;;;;5011621;28;20049;-64
2022/02/13 07:32:52;;;;;;;2.83;1.38;;;20.40;99.90;;;;;;5000228;28;20352;-65
2022/02/13 07:35:19;;;;;;;0.52;0.52;;;20.30;99.90;;;;;;5025000;28;20057;-64
2022/02/13 07:37:47;;;;;;;5.82;3.88;;;20.40;99.90;;;;;;5018212;28;20058;-65
2022/02/13 07:40:14;;;;;;;7.50;1.40;;;20.30;99.90;;;;;;5023913;28;20630;-62
2022/02/13 07:42:43;;;;;;;2.83;1.63;;;20.30;99.90;;;;;;5015702;28;20052;-63
2022/02/13 07:45:12;;;;;;;1.05;1.02;;;20.30;99.90;;;;;;5026898;28;20045;-63
2022/02/13 07:47:39;;;;;;;14.30;0.93;;;20.40;99.90;;;;;;5020623;28;20117;-61
2022/02/13 07:50:07;;;;;;;0.75;0.75;;;20.50;99.90;;;;;;5025367;28;20046;-64
2022/02/13 07:52:36;;;;;;;2.30;2.05;;;20.70;99.90;;;;;;5015543;28;20046;-63
2022/02/13 07:55:05;;;;;;;2.35;1.40;;;20.80;99.90;;;;;;5021221;28;20052;-60
2022/02/13 07:57:32;;;;;;;2.72;1.33;;;20.80;99.90;;;;;;5017868;28;20049;-62
2022/02/13 08:00:00;;;;;;;0.93;0.68;;;21.00;99.90;;;;;;5023972;28;20046;-62
2022/02/13 08:02:27;;;;;;;2.72;1.70;;;21.10;99.90;;;;;;5022635;28;20053;-62
2022/02/13 08:04:54;;;;;;;14.88;2.60;;;21.10;99.90;;;;;;5016787;28;20050;-62
2022/02/13 08:07:21;;;;;;;1.30;1.20;;;21.10;99.90;;;;;;5001751;28;20060;-64
2022/02/13 08:09:49;;;;;;;2.28;1.30;;;21.10;99.90;;;;;;5019951;28;20056;-62
2022/02/13 08:12:16;;;;;;;1.13;0.93;;;21.10;99.90;;;;;;5011397;28;20056;-62
2022/02/13 08:14:44;;;;;;;5.18;1.17;;;21.10;99.90;;;;;;5015226;28;20141;-65
2022/02/13 08:17:11;;;;;;;1.60;1.00;;;21.10;99.90;;;;;;5001469;28;20050;-67
2022/02/13 08:19:38;;;;;;;3.72;2.33;;;21.10;99.90;;;;;;5020521;28;20041;-63
2022/02/13 08:22:07;;;;;;;0.43;0.43;;;21.20;99.90;;;;;;5018212;28;20054;-67
2022/02/13 08:24:35;;;;;;;0.50;0.50;;;21.10;99.90;;;;;;5019147;28;20058;-67
2022/02/13 08:27:02;;;;;;;;;;;21.10;99.90;;;;;;4999285;28;20062;-64
2022/02/13 08:29:29;;;;;;;1.77;1.20;;;21.00;99.90;;;;;;5017624;28;19929;-65
2022/02/13 08:31:56;;;;;;;1.55;0.98;;;21.00;99.90;;;;;;5019324;28;20108;-65
2022/02/13 08:34:25;;;;;;;0.85;0.85;;;21.00;99.90;;;;;;5015465;28;20046;-60
2022/02/13 08:36:52;;;;;;;1.33;0.85;;;20.90;99.90;;;;;;5010519;28;20061;-63
2022/02/13 08:39:20;;;;;;;0.80;0.75;;;20.90;99.90;;;;;;5003507;28;20065;-62
2022/02/13 08:41:47;;;;;;;0.80;0.80;;;20.90;99.90;;;;;;5013502;28;20056;-63
2022/02/13 08:44:15;;;;;;;1.52;0.98;;;20.90;99.90;;;;;;5021689;28;20068;-63
2022/02/13 08:46:43;;;;;;;0.63;0.63;;;20.80;99.90;;;;;;5017202;28;20057;-62
2022/02/13 08:49:10;;;;;;;0.75;0.75;;;20.80;99.90;;;;;;5017588;28;21319;-63
2022/02/13 08:51:38;;;;;;;2.53;1.65;;;20.80;99.90;;;;;;5024526;28;20042;-63
2022/02/13 08:54:05;;;;;;;0.52;0.52;;;20.70;99.90;;;;;;5002834;28;20045;-60
2022/02/13 08:56:33;;;;;;;0.30;0.30;;;20.60;99.90;;;;;;5020312;28;20057;-62
2022/02/13 08:59:01;;;;;;;1.70;0.77;;;20.60;99.90;;;;;;5023299;28;20057;-62
2022/02/13 09:01:28;;;;;;;0.90;0.90;;;20.50;99.90;;;;;;5009171;28;20145;-57
2022/02/13 09:03:56;;;;;;;0.70;0.70;;;20.50;99.90;;;;;;5018677;28;20042;-61
2022/02/13 09:06:23;;;;;;;2.00;1.15;;;20.40;99.90;;;;;;5020985;28;20073;-60
2022/02/13 09:08:51;;;;;;;0.65;0.65;;;20.40;99.90;;;;;;5022731;28;20044;-59
2022/02/13 09:11:18;;;;;;;1.15;0.60;;;20.40;99.90;;;;;;5021152;28;20045;-59
2022/02/13 09:13:45;;;;;;;0.98;0.90;;;20.40;99.90;;;;;;5029201;28;20041;-60
2022/02/13 09:16:13;;;;;;;1.75;1.08;;;20.50;99.90;;;;;;5031089;28;20049;-59
2022/02/13 09:18:42;;;;;;;0.63;0.63;;;20.60;99.90;;;;;;5020737;28;20138;-59
2022/02/13 09:21:09;;;;;;;0.60;0.60;;;20.60;99.90;;;;;;5014388;28;20049;-64
2022/02/13 09:23:36;;;;;;;1.15;1.05;;;20.80;99.90;;;;;;5012930;28;20478;-61
2022/02/13 09:26:04;;;;;;;0.90;0.90;;;20.90;99.90;;;;;;5015729;28;20045;-62
2022/02/13 09:28:31;;;;;;;2.35;1.02;;;21.00;99.90;;;;;;5030178;28;20046;-61
2022/02/13 09:31:03;;;;;;;0.52;0.52;;;21.10;99.90;;;;;;5018615;28;20368;-64
2022/02/13 09:33:30;;;;;;;0.68;0.68;;;21.20;99.90;;;;;;5021694;28;20050;-62
2022/02/13 09:35:58;;;;;;;1.45;1.27;;;21.30;99.90;;;;;;5024229;28;20052;-59
2022/02/13 09:38:25;;;;;;;1.63;1.27;;;21.30;99.90;;;;;;5018340;28;20053;-62
2022/02/13 09:40:54;;;;;;;2.78;1.67;;;21.30;99.90;;;;;;5010802;28;20070;-62
2022/02/13 09:43:21;;;;;;;2.22;1.40;;;21.30;99.90;;;;;;5027451;28;20053;-61
2022/02/13 09:45:52;;;;;;;1.13;0.85;;;21.30;99.90;;;;;;5014435;28;20050;-62
2022/02/13 09:48:22;;;;;;;0.60;0.60;;;21.30;99.90;;;;;;5030985;28;20054;-64
2022/02/13 09:50:49;;;;;;;0.40;0.40;;;21.20;99.90;;;;;;5034774;28;20049;-63
2022/02/13 09:53:19;;;;;;;0.77;0.77;;;21.20;99.90;;;;;;5023800;28;20058;-65
2022/02/13 09:55:47;;;;;;;1.20;1.00;;;21.20;99.90;;;;;;5033423;28;20045;-63
2022/02/13 09:58:14;;;;;;;;;;;21.20;99.90;;;;;;5037645;28;20053;-63
2022/02/13 10:00:56;;;;;;;0.40;0.40;;;21.10;99.90;;;;;;5032395;28;20327;-64
2022/02/13 10:03:24;;;;;;;0.60;0.60;;;21.10;99.90;;;;;;5035519;28;20054;-64
2022/02/13 10:06:02;;;;;;;2.17;1.40;;;21.00;99.90;;;;;;5020563;28;20425;-64
2022/02/13 10:08:39;;;;;;;0.40;0.40;;;21.00;99.90;;;;;;5026853;28;20050;-63
2022/02/13 10:11:18;;;;;;;0.88;0.63;;;20.90;99.90;;;;;;5008850;28;20054;-64
2022/02/13 10:13:58;;;;;;;0.85;0.85;;;20.90;99.90;;;;;;5021304;28;20048;-62
2022/02/13 10:16:34;;;;;;;1.30;0.90;;;20.80;99.90;;;;;;5024238;28;20064;-63
2022/02/13 10:19:10;;;;;;;1.02;1.02;;;20.80;99.90;;;;;;5021425;28;20045;-59
2022/02/13 10:21:39;;;;;;;5.32;1.13;;;20.70;99.90;;;;;;5022127;28;20108;-67
2022/02/13 10:24:31;;;;;;;1.25;0.80;;;20.60;99.90;;;;;;5011968;28;20401;-61
2022/02/13 10:27:15;;;;;;;0.82;0.82;;;20.70;99.90;;;;;;5019909;28;20061;-62
2022/02/13 10:29:44;;;;;;;1.20;1.10;;;20.80;99.90;;;;;;5023808;28;20470;-62
2022/02/13 10:32:22;;;;;;;0.95;0.80;;;20.70;99.90;;;;;;5015424;28;20045;-61
2022/02/13 10:34:57;;;;;;;0.70;0.70;;;20.70;99.90;;;;;;5027690;28;20042;-60
2022/02/13 10:37:54;;;;;;;1.73;0.98;;;20.70;99.90;;;;;;5029546;28;20053;-63
2022/02/13 10:40:29;;;;;;;0.47;0.47;;;20.60;99.90;;;;;;5015743;28;20061;-62
2022/02/13 10:43:09;;;;;;;1.00;0.95;;;20.60;99.90;;;;;;5028926;28;20393;-60
2022/02/13 10:45:39;;;;;;;0.77;0.77;;;20.60;99.90;;;;;;5020171;28;20069;-63
2022/02/13 10:48:09;;;;;;;0.55;0.55;;;20.60;99.90;;;;;;5008909;28;20425;-62
2022/02/13 10:50:40;;;;;;;0.40;0.40;;;20.50;99.90;;;;;;5001650;28;20049;-60
2022/02/13 10:53:08;;;;;;;1.95;0.98;;;20.50;99.90;;;;;;5020323;28;20046;-60
2022/02/13 10:55:37;;;;;;;0.43;0.43;;;20.50;99.90;;;;;;5011972;28;20053;-61
2022/02/13 10:58:05;;;;;;;1.25;0.77;;;20.60;99.90;;;;;;5026814;28;20057;-61
2022/02/13 11:00:37;;;;;;;0.43;0.43;;;20.70;99.90;;;;;;5018819;28;20058;-62
2022/02/13 11:03:06;;;;;;;0.82;0.80;;;20.90;99.90;;;;;;5002575;28;20430;-60
2022/02/13 11:05:34;;;;;;;1.63;1.52;;;21.00;99.90;;;;;;5017643;28;20057;-61
2022/02/13 11:08:06;;;;;;;0.95;0.95;;;21.20;99.90;;;;;;5019124;28;20045;-64
2022/02/13 11:10:40;;;;;;;0.60;0.60;;;21.30;99.90;;;;;;5026747;28;20052;-63
2022/02/13 11:13:12;;;;;;;0.60;0.60;;;21.40;99.90;;;;;;5017432;28;20060;-61
2022/02/13 11:15:42;;;;;;;0.30;0.30;;;21.50;99.90;;;;;;5016814;28;20053;-60
2022/02/13 11:18:17;;;;;;;0.88;0.73;;;21.50;99.90;;;;;;5018346;28;20069;-63
2022/02/13 11:20:44;;;;;;;0.93;0.88;;;21.60;99.90;;;;;;5027380;28;20049;-61
2022/02/13 11:23:32;;;;;;;1.20;1.00;;;21.50;99.90;;;;;;5009425;28;20509;-56
2022/02/13 11:26:05;;;;;;;0.65;0.65;;;21.30;99.90;;;;;;5020769;28;20394;-60
2022/02/13 11:28:42;;;;;;;1.15;1.08;;;21.30;99.90;;;;;;5024710;28;20052;-63
2022/02/13 11:31:28;;;;;;;1.27;0.85;;;21.20;99.90;;;;;;5026281;28;20045;-63
2022/02/13 11:33:56;;;;;;;6.03;1.05;;;21.20;99.90;;;;;;5023150;28;20041;-65
2022/02/13 11:36:56;;;;;;;3.30;1.38;;;21.20;99.90;;;;;;5019174;28;20045;-59
2022/02/13 11:39:45;;;;;;;0.88;0.77;;;21.10;99.90;;;;;;5017226;28;20049;-61
2022/02/13 11:42:20;;;;;;;1.45;1.10;;;21.10;99.90;;;;;;5014790;28;20057;-60
2022/02/13 11:44:50;;;;;;;2.63;1.88;;;21.10;99.90;;;;;;5017612;28;20037;-60
2022/02/13 11:47:20;;;;;;;3.88;2.55;;;21.00;99.90;;;;;;5008841;28;20761;-61
2022/02/13 11:50:09;;;;;;;2.38;1.77;;;21.00;99.90;;;;;;5023362;28;20049;-61
2022/02/13 11:52:39;;;;;;;16.83;4.30;;;20.90;99.90;;;;;;5022033;28;21141;-62
2022/02/13 11:55:14;;;;;;;7.70;3.00;;;20.80;99.90;;;;;;5025937;28;20052;-60
2022/02/13 11:57:56;;;;;;;10.65;5.32;;;20.80;99.90;;;;;;5022972;28;20367;-60
2022/02/13 12:00:35;;;;;;;1.60;1.50;;;20.80;99.90;;;;;;5026160;28;20049;-57
2022/02/13 12:03:19;;;;;;;6.35;3.65;;;20.80;99.90;;;;;;5022448;28;20058;-59
2022/02/13 12:06:02;;;;;;;4.93;3.10;;;20.80;99.90;;;;;;5019191;28;20057;-65
2022/02/13 12:08:30;;;;;;;3.63;2.17;;;20.80;99.90;;;;;;4999601;28;20072;-63
2022/02/13 12:11:04;;;;;;;;;;;20.70;99.90;;;;;;5006311;28;20064;-59
2022/02/13 12:13:34;;;;;;;3.63;1.73;;;20.70;99.90;;;;;;5022814;28;19933;-60
2022/02/13 12:16:02;;;;;;;6.93;3.45;;;20.70;99.90;;;;;;5026135;28;20041;-62
2022/02/13 12:18:34;;;;;;;5.82;3.00;;;20.70;99.90;;;;;;5021692;28;20091;-62
2022/02/13 12:21:07;;;;;;;3.45;2.17;;;20.60;99.90;;;;;;5019466;28;20045;-56
2022/02/13 12:23:35;;;;;;;2.10;1.33;;;20.70;99.90;;;;;;5020698;28;20053;-60
2022/02/13 12:26:04;;;;;;;12.60;5.22;;;20.60;99.90;;;;;;5024135;28;20425;-58
2022/02/13 12:28:37;;;;;;;12.80;1.92;;;20.70;99.90;;;;;;5021048;28;20057;-56
2022/02/13 12:31:06;;;;;;;5.45;2.92;;;20.60;99.90;;;;;;5018955;28;20045;-60
2022/02/13 12:33:41;;;;;;;2.75;1.90;;;20.60;99.90;;;;;;5027472;28;20037;-60
2022/02/13 12:36:11;;;;;;;4.60;3.05;;;20.70;99.90;;;;;;5027156;28;21351;-61
2022/02/13 12:38:38;;;;;;;3.38;2.65;;;20.70;99.90;;;;;;5035913;28;20049;-60
2022/02/13 12:41:06;;;;;;;2.38;1.92;;;20.80;99.90;;;;;;5017857;28;20064;-59
2022/02/13 12:43:33;;;;;;;1.92;1.55;;;20.70;99.90;;;;;;4991626;28;20049;-59
2022/02/13 12:46:00;;;;;;;4.68;1.92;;;20.90;99.90;;;;;;5012778;28;20409;-57
2022/02/13 12:48:28;;;;;;;3.17;2.28;;;21.00;99.90;;;;;;5028742;28;20054;-58
2022/02/13 12:51:00;;;;;;;21.58;3.92;;;21.00;99.90;;;;;;5021830;28;20417;-59
2022/02/13 12:53:30;;;;;;;3.80;2.08;;;21.10;99.90;;;;;;5012814;28;20053;-58
2022/02/13 12:56:03;;;;;;;1.80;1.17;;;21.10;99.90;;;;;;5027316;28;20060;-57
2022/02/13 12:58:33;;;;;;;3.75;1.95;;;21.20;99.90;;;;;;5019664;28;20064;-60